Swanley, United Kingdom
Current Conditions -  °F | °C
As of 9:50 AM on Sunday 25 Jan 2015 (Local Time) from EGKB Reporting Station
Broken Clouds Broken Clouds  
Wind Chill:   Ceiling: 3400
Heat Index:   Visibility: 6mi
Dew Point: -1°   Wind: 6mph
Humidity: 70%   Direction: 230°SW
Pressure: 30.45"   Gusts: NA
Location:  51.39°N, 0.18°E
Report Text: EGKB 250950Z 23005KT 200V260 9999 BKN034 04/M01 Q1031
Loading
Personal Weather Stations






























Interactive Weather Map New forecast layout! Learn more

10-Day Weather Forecast

Advertisements
Track Severe Weather on mobile